createdAt,value
2023-02-01T00:02:41.503Z,26.50
2023-02-01T00:05:43.196Z,25.10
2023-02-01T00:08:44.815Z,27.30
2023-02-01T00:11:46.450Z,27.70
2023-02-01T00:14:48.096Z,26.80
2023-02-01T00:17:54.705Z,25.40
2023-02-01T00:20:56.364Z,26.70
2023-02-01T00:23:58.332Z,27.70
2023-02-01T00:27:00.004Z,28.70
2023-02-01T00:33:03.337Z,24.70
2023-02-01T00:36:07.323Z,23.60
2023-02-01T00:39:09.448Z,24.10
2023-02-01T00:42:11.043Z,23.80
2023-02-01T00:45:12.649Z,22.80
2023-02-01T00:48:14.291Z,23.00
2023-02-01T00:51:18.820Z,23.40
2023-02-01T00:54:20.518Z,25.30
2023-02-01T01:00:23.924Z,20.60
2023-02-01T01:03:25.781Z,20.70
2023-02-01T01:09:30.688Z,23.10
2023-02-01T01:15:38.506Z,21.10
2023-02-01T01:18:40.669Z,18.70
2023-02-01T01:21:42.297Z,19.90
2023-02-01T01:24:43.906Z,21.20
2023-02-01T01:27:45.577Z,20.90
2023-02-01T01:30:47.322Z,18.10
2023-02-01T01:33:51.394Z,21.00
2023-02-01T01:36:53.035Z,19.50
2023-02-01T01:39:54.578Z,21.00
2023-02-01T01:42:57.154Z,20.50
2023-02-01T01:45:58.741Z,24.80
2023-02-01T01:49:03.121Z,20.20
2023-02-01T01:52:05.051Z,22.10
2023-02-01T01:55:06.949Z,21.30
2023-02-01T01:58:14.526Z,21.30
2023-02-01T02:01:16.326Z,21.80
2023-02-01T02:07:27.733Z,22.40
2023-02-01T02:10:29.765Z,21.30
2023-02-01T02:13:38.156Z,21.00
2023-02-01T02:17:05.604Z,17.00
2023-02-01T02:20:44.775Z,18.90
2023-02-01T02:24:00.321Z,19.80
2023-02-01T02:27:29.160Z,17.90
2023-02-01T02:30:45.914Z,17.90
2023-02-01T02:34:03.361Z,21.10
2023-02-01T02:37:11.185Z,22.30
2023-02-01T02:40:21.984Z,22.40
2023-02-01T02:43:31.679Z,21.40
2023-02-01T02:46:38.437Z,24.10
2023-02-01T02:49:50.995Z,20.60
2023-02-01T02:53:03.054Z,24.30
2023-02-01T02:56:06.895Z,23.50
2023-02-01T02:59:10.043Z,22.00
2023-02-01T03:02:12.949Z,21.20
2023-02-01T03:11:19.021Z,22.20
2023-02-01T03:14:22.416Z,23.80
2023-02-01T03:17:30.355Z,24.00
2023-02-01T03:20:32.964Z,24.80
2023-02-01T03:23:36.385Z,27.10
2023-02-01T03:26:40.922Z,28.40
2023-02-01T03:29:50.047Z,25.30
2023-02-01T03:32:55.635Z,31.90
2023-02-01T03:36:03.736Z,27.90
2023-02-01T03:39:10.969Z,27.50
2023-02-01T03:42:20.521Z,26.70
2023-02-01T03:45:29.929Z,25.70
2023-02-01T03:48:32.449Z,29.30
2023-02-01T03:51:34.901Z,27.70
2023-02-01T03:54:37.806Z,27.50
2023-02-01T03:57:44.393Z,23.70
2023-02-01T04:00:51.079Z,30.20
2023-02-01T04:03:52.746Z,26.90
2023-02-01T04:09:56.013Z,35.10
2023-02-01T04:12:57.556Z,31.30
2023-02-01T04:15:59.179Z,25.40
2023-02-01T04:19:01.372Z,27.20
2023-02-01T04:22:03.072Z,28.70
2023-02-01T04:28:06.544Z,26.60
2023-02-01T04:31:08.221Z,26.30
2023-02-01T04:37:11.397Z,22.10
2023-02-01T04:40:13.337Z,26.10
2023-02-01T04:43:15.198Z,23.30
2023-02-01T04:46:16.891Z,21.60
2023-02-01T04:52:20.017Z,22.70
2023-02-01T04:55:21.637Z,22.00
2023-02-01T04:58:23.208Z,18.50
2023-02-01T05:01:25.093Z,20.50
2023-02-01T05:10:30.250Z,21.30
2023-02-01T05:13:32.017Z,18.00
2023-02-01T05:19:35.202Z,19.30
2023-02-01T05:22:36.828Z,22.60
2023-02-01T05:25:38.308Z,20.40
2023-02-01T05:28:39.946Z,22.10
2023-02-01T05:31:41.624Z,22.70
2023-02-01T05:34:43.283Z,20.30
2023-02-01T05:37:44.922Z,21.60
2023-02-01T05:40:46.540Z,26.00
2023-02-01T05:46:50.266Z,19.80
2023-02-01T05:49:52.162Z,20.70
2023-02-01T05:55:55.203Z,19.70
2023-02-01T05:58:56.784Z,18.30
2023-02-01T06:01:58.490Z,25.10
2023-02-01T06:08:01.689Z,25.90
2023-02-01T06:11:05.139Z,22.80
2023-02-01T06:14:06.915Z,23.00
2023-02-01T06:17:09.011Z,21.90
2023-02-01T06:20:12.222Z,23.30
2023-02-01T06:23:13.824Z,24.70
2023-02-01T06:26:15.504Z,23.60
2023-02-01T06:29:17.168Z,23.20
2023-02-01T06:32:18.796Z,23.60
2023-02-01T06:35:20.382Z,23.00
2023-02-01T06:38:21.949Z,23.40
2023-02-01T06:41:24.259Z,23.20
2023-02-01T06:44:25.851Z,25.10
2023-02-01T06:47:27.486Z,24.50
2023-02-01T06:50:29.131Z,25.30
2023-02-01T06:53:31.434Z,23.60
2023-02-01T06:56:32.929Z,20.60
2023-02-01T06:59:34.487Z,22.50
2023-02-01T07:02:36.093Z,21.60
2023-02-01T07:05:37.861Z,22.30
2023-02-01T07:11:41.220Z,26.10
2023-02-01T07:14:42.871Z,24.90
2023-02-01T07:20:51.313Z,24.30
2023-02-01T07:23:52.893Z,23.60
2023-02-01T07:26:54.692Z,27.20
2023-02-01T07:32:58.117Z,23.90
2023-02-01T07:36:02.228Z,22.80
2023-02-01T07:39:04.917Z,22.40
2023-02-01T07:42:06.668Z,21.60
2023-02-01T07:45:20.824Z,27.20
2023-02-01T07:48:24.434Z,22.10
2023-02-01T07:51:26.164Z,24.20
2023-02-01T07:54:27.940Z,28.80
2023-02-01T08:00:31.271Z,25.90
2023-02-01T08:06:34.833Z,23.30
2023-02-01T08:09:36.559Z,26.70
2023-02-01T08:15:39.993Z,29.90
2023-02-01T08:19:00.197Z,26.40
2023-02-01T08:22:20.649Z,23.10
2023-02-01T08:25:22.684Z,19.20
2023-02-01T08:28:24.560Z,22.90
2023-02-01T08:31:28.199Z,29.80
2023-02-01T08:34:30.207Z,25.10
2023-02-01T08:37:32.513Z,21.30
2023-02-01T08:40:34.279Z,23.10
2023-02-01T08:43:36.131Z,26.70
2023-02-01T08:46:37.779Z,20.00
2023-02-01T08:52:40.976Z,21.40
2023-02-01T08:55:42.617Z,21.60
2023-02-01T08:58:44.551Z,25.10
2023-02-01T09:01:46.184Z,20.20
2023-02-01T09:07:49.701Z,23.10
2023-02-01T09:13:52.773Z,21.10
2023-02-01T09:16:54.473Z,24.20
2023-02-01T09:22:58.170Z,22.70
2023-02-01T09:26:04.151Z,22.30
2023-02-01T09:29:06.376Z,22.20
2023-02-01T09:32:08.238Z,19.70
2023-02-01T09:35:10.058Z,21.60
2023-02-01T09:38:11.838Z,23.80
2023-02-01T09:41:50.906Z,21.20
2023-02-01T09:45:08.196Z,18.90
2023-02-01T09:48:18.778Z,19.90
2023-02-01T09:51:24.906Z,21.80
2023-02-01T09:54:30.603Z,21.60
2023-02-01T09:57:43.101Z,23.00
2023-02-01T10:01:04.656Z,23.80
2023-02-01T10:04:09.617Z,20.70
2023-02-01T10:07:37.682Z,21.00
2023-02-01T10:10:49.098Z,21.90
2023-02-01T10:14:03.613Z,25.30
2023-02-01T10:17:44.465Z,21.10
2023-02-01T10:21:09.662Z,21.40
2023-02-01T10:24:33.808Z,26.70
2023-02-01T10:27:39.396Z,21.40
2023-02-01T10:30:45.414Z,19.80
2023-02-01T10:33:50.423Z,23.00
2023-02-01T10:37:20.733Z,25.00
2023-02-01T10:40:25.772Z,20.90
2023-02-01T10:43:27.622Z,19.20
2023-02-01T10:49:37.856Z,19.60
2023-02-01T10:52:47.603Z,18.80
2023-02-01T10:55:51.228Z,17.00
2023-02-01T10:59:01.710Z,20.10
2023-02-01T11:02:35.635Z,18.60
2023-02-01T11:05:47.490Z,19.20
2023-02-01T11:11:51.320Z,22.20
2023-02-01T11:14:59.882Z,19.60
2023-02-01T11:18:16.444Z,23.50
2023-02-01T11:21:18.174Z,20.40
2023-02-01T11:27:28.986Z,20.40
2023-02-01T11:30:38.016Z,21.90
2023-02-01T11:33:47.317Z,19.70
2023-02-01T11:36:50.188Z,25.20
2023-02-01T11:39:59.231Z,24.80
2023-02-01T11:43:08.890Z,22.40
2023-02-01T11:46:18.987Z,23.00
2023-02-01T11:49:28.239Z,21.20
2023-02-01T11:52:55.718Z,24.90
2023-02-01T11:56:21.124Z,25.90
2023-02-01T11:59:31.654Z,24.20
2023-02-01T12:02:58.076Z,24.40
2023-02-01T12:06:23.313Z,21.20
2023-02-01T12:09:51.938Z,23.40
2023-02-01T12:13:02.626Z,25.10
2023-02-01T12:16:07.555Z,25.60
2023-02-01T12:19:28.732Z,18.70
2023-02-01T12:22:50.874Z,22.10
2023-02-01T12:29:55.649Z,22.10
2023-02-01T12:33:19.301Z,22.90
2023-02-01T12:36:44.189Z,24.10
2023-02-01T12:40:07.201Z,22.90
2023-02-01T12:43:13.658Z,23.30
2023-02-01T12:46:27.007Z,28.00
2023-02-01T12:49:35.886Z,25.40
2023-02-01T12:52:48.266Z,25.80
2023-02-01T12:55:55.667Z,22.90
2023-02-01T12:58:59.959Z,24.70
2023-02-01T13:02:11.201Z,24.30
2023-02-01T13:08:48.607Z,23.20
2023-02-01T13:11:53.161Z,26.90
2023-02-01T13:14:58.267Z,22.80
2023-02-01T13:18:03.198Z,22.80
2023-02-01T13:21:09.952Z,23.30
2023-02-01T13:24:27.844Z,21.10
2023-02-01T13:27:30.745Z,21.40
2023-02-01T13:31:03.808Z,20.90
2023-02-01T13:34:30.775Z,20.40
2023-02-01T13:38:05.754Z,23.30
2023-02-01T13:41:29.871Z,21.00
2023-02-01T13:44:35.611Z,24.60
2023-02-01T13:47:44.464Z,22.00
2023-02-01T13:50:52.404Z,22.00
2023-02-01T13:53:54.065Z,23.20
2023-02-01T14:00:07.883Z,25.00
2023-02-01T14:03:13.063Z,23.70
2023-02-01T14:06:27.222Z,23.80
2023-02-01T14:09:35.004Z,27.20
2023-02-01T14:12:47.923Z,29.90
2023-02-01T14:16:05.192Z,28.20
2023-02-01T14:19:28.087Z,24.60
2023-02-01T14:22:36.344Z,26.40
2023-02-01T14:25:38.643Z,22.00
2023-02-01T14:28:55.521Z,22.70
2023-02-01T14:32:04.998Z,22.10
2023-02-01T14:35:13.487Z,20.60
2023-02-01T14:38:15.245Z,20.70
2023-02-01T14:44:29.969Z,21.50
2023-02-01T14:47:32.609Z,23.10
2023-02-01T14:50:34.645Z,21.80
2023-02-01T14:53:36.441Z,23.50
2023-02-01T14:59:41.220Z,19.60
2023-02-01T15:02:44.935Z,20.10
2023-02-01T15:05:46.545Z,20.50
2023-02-01T15:08:48.284Z,20.00
2023-02-01T15:12:11.761Z,19.90
2023-02-01T15:15:15.215Z,21.10
2023-02-01T15:18:18.095Z,21.80
2023-02-01T15:21:28.073Z,21.40
2023-02-01T15:24:34.649Z,20.90
2023-02-01T15:27:37.354Z,22.70
2023-02-01T15:30:39.098Z,19.70
2023-02-01T15:36:56.624Z,19.50
2023-02-01T15:40:10.930Z,17.40
2023-02-01T15:43:13.124Z,16.50
2023-02-01T15:46:19.850Z,18.20
2023-02-01T15:49:37.426Z,20.80
2023-02-01T15:52:41.022Z,18.60
2023-02-01T15:55:43.601Z,20.00
2023-02-01T15:58:47.325Z,21.30
2023-02-01T16:01:49.467Z,20.00
2023-02-01T16:04:51.252Z,21.40
2023-02-01T16:08:05.319Z,25.80
2023-02-01T16:11:10.187Z,23.20
2023-02-01T16:14:11.854Z,22.70
2023-02-01T16:20:15.127Z,22.50
2023-02-01T16:23:17.069Z,22.10
2023-02-01T16:26:19.916Z,23.10
2023-02-01T16:29:21.461Z,21.70
2023-02-01T16:32:23.397Z,23.60
2023-02-01T16:38:32.424Z,24.30
2023-02-01T16:41:34.117Z,24.60
2023-02-01T16:44:35.698Z,24.80
2023-02-01T16:47:38.680Z,24.40
2023-02-01T16:50:40.282Z,22.00
2023-02-01T16:53:53.447Z,24.50
2023-02-01T16:56:56.106Z,22.60
2023-02-01T16:59:57.580Z,29.30
2023-02-01T17:02:59.131Z,27.00
2023-02-01T17:06:00.795Z,27.20
2023-02-01T17:12:05.259Z,29.20
2023-02-01T17:15:07.230Z,26.90
2023-02-01T17:18:11.766Z,28.90
2023-02-01T17:21:13.419Z,31.50
2023-02-01T17:24:17.336Z,32.20
2023-02-01T17:27:19.043Z,28.10
2023-02-01T17:33:29.053Z,26.20
2023-02-01T17:36:37.925Z,26.10
2023-02-01T17:39:39.611Z,27.50
2023-02-01T17:45:47.234Z,27.80
2023-02-01T17:48:48.819Z,27.80
2023-02-01T17:51:50.402Z,27.80
2023-02-01T17:57:53.742Z,26.90
2023-02-01T18:03:57.076Z,29.50
2023-02-01T18:06:58.777Z,29.50
2023-02-01T18:10:00.440Z,33.10
2023-02-01T18:16:04.356Z,30.60
2023-02-01T18:19:06.188Z,31.20
2023-02-01T18:22:15.525Z,29.90
2023-02-01T18:25:19.765Z,29.20
2023-02-01T18:28:21.418Z,30.10
2023-02-01T18:31:26.052Z,32.00
2023-02-01T18:34:27.768Z,33.20
2023-02-01T18:37:29.529Z,32.20
2023-02-01T18:40:36.496Z,34.60
2023-02-01T18:43:38.001Z,35.10
2023-02-01T18:46:39.546Z,36.80
2023-02-01T18:49:41.115Z,36.10
2023-02-01T18:52:42.752Z,37.70
2023-02-01T18:55:44.375Z,41.70
2023-02-01T18:58:46.531Z,46.90
2023-02-01T19:01:48.273Z,47.30
2023-02-01T19:04:49.937Z,40.90
2023-02-01T19:07:51.766Z,59.90
2023-02-01T19:10:54.375Z,39.80
2023-02-01T19:13:56.044Z,40.50
2023-02-01T19:16:57.656Z,40.90
2023-02-01T19:19:59.319Z,34.10
2023-02-01T19:23:00.968Z,28.90
2023-02-01T19:26:02.747Z,27.60
2023-02-01T19:29:04.416Z,30.10
2023-02-01T19:32:06.538Z,35.60
2023-02-01T19:35:09.586Z,30.00
2023-02-01T19:38:30.207Z,33.60
2023-02-01T19:41:31.872Z,29.40
2023-02-01T19:47:35.839Z,35.50
2023-02-01T19:50:37.483Z,33.60
2023-02-01T19:53:39.073Z,33.00
2023-02-01T19:56:41.011Z,31.30
2023-02-01T19:59:42.715Z,31.30
2023-02-01T20:05:45.225Z,35.40
2023-02-01T20:08:48.303Z,35.10
2023-02-01T20:11:50.809Z,33.80
2023-02-01T20:14:52.529Z,41.20
2023-02-01T20:20:57.554Z,32.60
2023-02-01T20:23:59.299Z,33.60
2023-02-01T20:27:01.730Z,34.90
2023-02-01T20:30:04.391Z,33.00
2023-02-01T20:33:05.993Z,32.90
2023-02-01T20:36:08.139Z,29.10
2023-02-01T20:39:09.728Z,30.50
2023-02-01T20:42:11.328Z,28.40
2023-02-01T20:45:13.029Z,29.80
2023-02-01T20:48:15.981Z,29.00
2023-02-01T20:51:20.036Z,29.10
2023-02-01T20:54:21.701Z,29.90
2023-02-01T20:57:23.568Z,31.60
2023-02-01T21:03:27.064Z,30.50
2023-02-01T21:06:28.857Z,32.00
2023-02-01T21:12:32.254Z,34.60
2023-02-01T21:15:35.973Z,34.10
2023-02-01T21:18:37.776Z,32.40
2023-02-01T21:21:39.503Z,36.30
2023-02-01T21:27:42.987Z,34.30
2023-02-01T21:30:44.550Z,31.80
2023-02-01T21:33:48.466Z,37.50
2023-02-01T21:36:50.117Z,38.40
2023-02-01T21:42:53.695Z,35.30
2023-02-01T21:45:55.329Z,31.70
2023-02-01T21:49:04.732Z,34.10
2023-02-01T21:52:07.950Z,33.60
2023-02-01T21:55:10.056Z,30.90
2023-02-01T21:58:11.675Z,30.80
2023-02-01T22:01:13.284Z,32.10
2023-02-01T22:04:14.903Z,32.60
2023-02-01T22:07:16.621Z,31.10
2023-02-01T22:13:19.786Z,29.20
2023-02-01T22:16:22.162Z,29.10
2023-02-01T22:19:23.864Z,30.00
2023-02-01T22:22:25.517Z,32.50
2023-02-01T22:25:27.297Z,33.30
2023-02-01T22:31:35.408Z,30.00
2023-02-01T22:34:37.219Z,30.60
2023-02-01T22:37:38.952Z,26.60
2023-02-01T22:40:40.559Z,31.30
2023-02-01T22:43:42.426Z,32.80
2023-02-01T22:46:44.244Z,28.60
2023-02-01T22:52:47.549Z,26.30
2023-02-01T22:55:49.231Z,24.90
2023-02-01T22:58:55.120Z,25.80
2023-02-01T23:01:56.699Z,25.90
2023-02-01T23:07:59.817Z,24.20
2023-02-01T23:11:05.599Z,26.60
2023-02-01T23:14:07.568Z,27.40
2023-02-01T23:17:09.144Z,26.40
2023-02-01T23:20:16.677Z,24.20
2023-02-01T23:23:18.286Z,26.70
2023-02-01T23:26:20.441Z,27.10
2023-02-01T23:29:22.143Z,29.70
2023-02-01T23:32:23.816Z,25.00
2023-02-01T23:35:25.916Z,25.10
2023-02-01T23:38:28.686Z,24.20
2023-02-01T23:41:30.320Z,25.40
2023-02-01T23:44:31.941Z,24.90
2023-02-01T23:47:33.892Z,24.10
2023-02-01T23:50:35.406Z,26.50
2023-02-01T23:53:37.327Z,26.00
2023-02-01T23:56:43.793Z,23.40
2023-02-01T23:59:45.444Z,25.50
